createdAt,value
2019-05-01T00:02:24.725Z,16.30
2019-05-01T00:05:15.859Z,15.57
2019-05-01T00:07:44.889Z,17.37
2019-05-01T00:10:14.574Z,15.87
2019-05-01T00:12:43.406Z,17.67
2019-05-01T00:15:13.512Z,17.23
2019-05-01T00:17:42.696Z,16.67
2019-05-01T00:20:11.889Z,17.07
2019-05-01T00:22:40.917Z,17.07
2019-05-01T00:25:09.842Z,15.43
2019-05-01T00:27:38.610Z,16.65
2019-05-01T00:30:09.453Z,16.83
2019-05-01T00:32:38.253Z,16.73
2019-05-01T00:35:07.146Z,17.97
2019-05-01T00:37:36.611Z,16.67
2019-05-01T00:40:05.569Z,17.90
2019-05-01T00:42:34.438Z,16.50
2019-05-01T00:45:03.874Z,17.10
2019-05-01T00:47:33.159Z,17.90
2019-05-01T00:50:02.259Z,19.10
2019-05-01T00:52:31.053Z,17.20
2019-05-01T00:55:31.884Z,16.57
2019-05-01T00:58:08.825Z,16.20
2019-05-01T01:00:57.270Z,17.27
2019-05-01T01:03:26.601Z,18.67
2019-05-01T01:05:56.142Z,18.47
2019-05-01T01:08:25.449Z,20.90
2019-05-01T01:10:54.904Z,17.67
2019-05-01T01:13:24.178Z,19.23
2019-05-01T01:15:53.192Z,18.80
2019-05-01T01:18:23.017Z,17.77
2019-05-01T01:20:53.478Z,17.23
2019-05-01T01:23:22.530Z,16.73
2019-05-01T01:25:51.499Z,17.13
2019-05-01T01:28:20.471Z,16.20
2019-05-01T01:30:56.696Z,17.85
2019-05-01T01:33:20.676Z,17.53
2019-05-01T01:35:49.809Z,18.10
2019-05-01T01:38:18.820Z,17.37
2019-05-01T01:40:47.953Z,16.50
2019-05-01T01:43:34.671Z,16.37
2019-05-01T01:46:05.535Z,16.40
2019-05-01T01:48:34.486Z,18.40
2019-05-01T01:51:03.654Z,17.70
2019-05-01T01:53:33.765Z,17.60
2019-05-01T01:56:02.706Z,17.70
2019-05-01T01:58:32.630Z,18.10
2019-05-01T02:01:11.857Z,18.20
2019-05-01T02:03:43.338Z,16.57
2019-05-01T02:06:13.017Z,18.53
2019-05-01T02:08:43.596Z,18.13
2019-05-01T02:11:14.068Z,17.07
2019-05-01T02:13:43.553Z,17.70
2019-05-01T02:16:12.817Z,17.57
2019-05-01T02:18:42.647Z,17.35
2019-05-01T02:21:12.146Z,16.20
2019-05-01T02:23:41.170Z,17.37
2019-05-01T02:26:12.624Z,16.97
2019-05-01T02:28:50.837Z,17.75
2019-05-01T02:31:29.537Z,16.80
2019-05-01T02:34:00.523Z,16.67
2019-05-01T02:36:29.799Z,17.30
2019-05-01T02:39:00.047Z,17.10
2019-05-01T02:41:33.785Z,17.20
2019-05-01T02:44:07.895Z,16.37
2019-05-01T02:46:39.673Z,18.07
2019-05-01T02:49:12.915Z,16.97
2019-05-01T02:51:43.333Z,17.67
2019-05-01T02:54:14.562Z,19.10
2019-05-01T02:56:51.285Z,16.83
2019-05-01T03:02:03.611Z,17.55
2019-05-01T03:04:34.363Z,17.47
2019-05-01T03:07:04.551Z,20.47
2019-05-01T03:09:34.900Z,18.37
2019-05-01T03:12:04.582Z,19.37
2019-05-01T03:14:37.048Z,18.80
2019-05-01T03:17:10.582Z,18.43
2019-05-01T03:20:06.028Z,18.70
2019-05-01T03:22:44.204Z,17.80
2019-05-01T03:25:13.054Z,18.57
2019-05-01T03:27:43.317Z,18.37
2019-05-01T03:30:12.571Z,17.40
2019-05-01T03:32:41.738Z,18.63
2019-05-01T03:35:10.743Z,18.30
2019-05-01T03:37:40.018Z,17.77
2019-05-01T03:40:12.239Z,17.47
2019-05-01T03:42:40.137Z,18.90
2019-05-01T03:45:09.326Z,19.40
2019-05-01T03:47:38.592Z,17.73
2019-05-01T03:50:07.524Z,19.57
2019-05-01T03:52:36.856Z,19.97
2019-05-01T03:55:05.710Z,21.30
2019-05-01T03:57:35.075Z,20.30
2019-05-01T04:00:06.516Z,19.57
2019-05-01T04:02:44.039Z,21.50
2019-05-01T04:05:13.184Z,19.53
2019-05-01T04:07:42.806Z,21.20
2019-05-01T04:10:12.087Z,21.07
2019-05-01T04:12:42.347Z,21.10
2019-05-01T04:15:11.438Z,22.57
2019-05-01T04:17:51.621Z,21.23
2019-05-01T04:20:21.172Z,21.35
2019-05-01T04:22:50.174Z,19.40
2019-05-01T04:25:19.667Z,22.00
2019-05-01T04:27:50.740Z,20.10
2019-05-01T04:30:34.879Z,20.17
2019-05-01T04:33:06.807Z,20.23
2019-05-01T04:35:53.386Z,19.97
2019-05-01T04:38:22.894Z,21.77
2019-05-01T04:40:52.106Z,19.47
2019-05-01T04:43:21.322Z,21.83
2019-05-01T04:45:50.478Z,23.05
2019-05-01T04:48:19.655Z,21.77
2019-05-01T04:50:49.343Z,24.67
2019-05-01T04:53:19.309Z,25.13
2019-05-01T04:55:48.619Z,27.47
2019-05-01T04:58:18.124Z,26.00
2019-05-01T05:00:47.042Z,30.53
2019-05-01T05:03:19.108Z,30.47
2019-05-01T05:05:48.815Z,35.17
2019-05-01T05:08:18.658Z,36.43
2019-05-01T05:10:48.691Z,37.50
2019-05-01T05:13:34.946Z,37.30
2019-05-01T05:16:13.336Z,38.10
2019-05-01T05:18:42.749Z,37.33
2019-05-01T05:21:12.070Z,38.17
2019-05-01T05:23:41.330Z,39.17
2019-05-01T05:26:10.657Z,38.50
2019-05-01T05:28:40.322Z,38.03
2019-05-01T05:31:11.189Z,40.57
2019-05-01T05:33:42.232Z,40.60
2019-05-01T05:36:14.130Z,38.90
2019-05-01T05:38:53.709Z,40.07
2019-05-01T05:41:23.694Z,40.00
2019-05-01T05:43:52.845Z,42.27
2019-05-01T05:46:22.742Z,41.88
2019-05-01T05:48:51.913Z,38.90
2019-05-01T05:51:57.127Z,41.13
2019-05-01T05:54:45.204Z,39.40
2019-05-01T05:57:21.436Z,41.50
2019-05-01T05:59:54.666Z,40.60
2019-05-01T06:02:48.002Z,38.00
2019-05-01T06:05:27.873Z,39.00
2019-05-01T06:08:34.330Z,41.07
2019-05-01T06:11:24.833Z,39.53
2019-05-01T06:14:32.902Z,40.57
2019-05-01T06:17:09.925Z,39.60
2019-05-01T06:19:50.009Z,42.80
2019-05-01T06:22:29.261Z,41.92
2019-05-01T06:25:22.713Z,40.77
2019-05-01T06:27:50.428Z,41.00
2019-05-01T06:30:19.614Z,42.20
2019-05-01T06:32:48.880Z,42.97
2019-05-01T06:35:18.115Z,41.50
2019-05-01T06:38:03.149Z,43.80
2019-05-01T06:40:40.624Z,40.80
2019-05-01T06:43:20.131Z,40.90
2019-05-01T06:45:54.231Z,40.63
2019-05-01T06:48:24.737Z,40.73
2019-05-01T06:51:19.071Z,36.60
2019-05-01T06:53:48.494Z,34.30
2019-05-01T06:56:17.586Z,36.87
2019-05-01T06:58:46.502Z,38.13
2019-05-01T07:01:18.837Z,37.70
2019-05-01T07:04:02.924Z,37.27
2019-05-01T07:06:17.055Z,38.00
2019-05-01T07:08:46.634Z,37.53
2019-05-01T07:11:16.655Z,37.60
2019-05-01T07:13:52.004Z,38.00
2019-05-01T07:16:21.541Z,39.10
2019-05-01T07:18:51.218Z,38.47
2019-05-01T07:21:22.820Z,37.57
2019-05-01T07:23:52.194Z,38.40
2019-05-01T07:26:22.853Z,40.27
2019-05-01T07:28:58.824Z,40.00
2019-05-01T07:31:30.893Z,41.10
2019-05-01T07:33:59.455Z,41.57
2019-05-01T07:36:28.798Z,41.60
2019-05-01T07:38:57.921Z,41.60
2019-05-01T07:41:27.734Z,42.13
2019-05-01T07:44:29.936Z,42.00
2019-05-01T07:47:16.289Z,39.73
2019-05-01T07:49:55.145Z,39.78
2019-05-01T07:52:25.238Z,42.78
2019-05-01T07:54:56.236Z,37.80
2019-05-01T07:57:25.638Z,39.07
2019-05-01T07:59:58.195Z,40.57
2019-05-01T08:02:30.866Z,38.67
2019-05-01T08:04:59.665Z,39.50
2019-05-01T08:07:32.344Z,41.63
2019-05-01T08:09:59.542Z,39.17
2019-05-01T08:12:32.913Z,37.27
2019-05-01T08:15:03.109Z,37.17
2019-05-01T08:17:35.589Z,36.20
2019-05-01T08:20:17.650Z,38.03
2019-05-01T08:22:46.737Z,35.20
2019-05-01T08:25:15.878Z,32.93
2019-05-01T08:27:51.115Z,35.40
2019-05-01T08:30:55.533Z,35.77
2019-05-01T08:33:44.776Z,35.63
2019-05-01T08:36:13.662Z,37.90
2019-05-01T08:38:42.431Z,36.77
2019-05-01T08:41:11.899Z,36.37
2019-05-01T08:43:41.370Z,36.23
2019-05-01T08:46:39.198Z,36.83
2019-05-01T08:49:17.334Z,36.83
2019-05-01T08:51:47.012Z,35.60
2019-05-01T08:54:16.499Z,36.30
2019-05-01T08:56:47.026Z,38.00
2019-05-01T08:59:19.394Z,35.00
2019-05-01T09:01:51.849Z,38.37
2019-05-01T09:04:18.879Z,38.50
2019-05-01T09:06:48.181Z,39.13
2019-05-01T09:09:17.645Z,37.60
2019-05-01T09:11:47.191Z,36.93
2019-05-01T09:14:16.311Z,36.47
2019-05-01T09:16:45.138Z,35.07
2019-05-01T09:19:14.455Z,33.27
2019-05-01T09:21:44.024Z,32.30
2019-05-01T09:24:13.860Z,30.10
2019-05-01T09:26:51.433Z,35.30
2019-05-01T09:29:24.795Z,33.57
2019-05-01T09:31:54.032Z,32.53
2019-05-01T09:34:23.551Z,33.93
2019-05-01T09:36:52.895Z,34.40
2019-05-01T09:39:23.338Z,35.73
2019-05-01T09:41:52.375Z,32.57
2019-05-01T09:44:21.733Z,34.38
2019-05-01T09:46:50.901Z,33.40
2019-05-01T09:49:40.977Z,33.70
2019-05-01T09:52:38.331Z,32.70
2019-05-01T09:55:23.005Z,33.70
2019-05-01T09:57:49.863Z,35.33
2019-05-01T10:00:26.740Z,31.97
2019-05-01T10:02:55.862Z,33.50
2019-05-01T10:05:29.045Z,32.87
2019-05-01T10:08:00.178Z,32.40
2019-05-01T10:10:29.303Z,33.80
2019-05-01T10:12:57.312Z,34.17
2019-05-01T10:15:27.075Z,32.28
2019-05-01T10:17:56.130Z,33.87
2019-05-01T10:20:25.391Z,34.40
2019-05-01T10:22:54.666Z,35.37
2019-05-01T10:25:26.617Z,34.80
2019-05-01T10:28:01.266Z,36.00
2019-05-01T10:30:48.001Z,35.67
2019-05-01T10:33:50.255Z,35.33
2019-05-01T10:36:32.982Z,34.23
2019-05-01T10:39:15.956Z,35.57
2019-05-01T10:41:47.930Z,36.10
2019-05-01T10:44:18.858Z,36.17
2019-05-01T10:46:47.785Z,36.10
2019-05-01T10:49:16.770Z,33.90
2019-05-01T10:51:45.567Z,36.20
2019-05-01T10:54:19.997Z,38.93
2019-05-01T10:56:48.851Z,35.70
2019-05-01T10:59:17.646Z,38.30
2019-05-01T11:02:07.551Z,47.80
2019-05-01T11:04:36.866Z,43.40
2019-05-01T11:07:05.949Z,36.87
2019-05-01T11:09:35.416Z,37.88
2019-05-01T11:12:04.665Z,38.53
2019-05-01T11:14:35.260Z,39.08
2019-05-01T11:17:06.190Z,39.10
2019-05-01T11:19:35.245Z,39.10
2019-05-01T11:22:10.522Z,40.00
2019-05-01T11:24:39.578Z,38.47
2019-05-01T11:27:08.400Z,36.45
2019-05-01T11:29:37.442Z,37.50
2019-05-01T11:32:37.727Z,36.97
2019-05-01T11:35:29.084Z,36.15
2019-05-01T11:38:07.725Z,34.57
2019-05-01T11:40:42.635Z,38.90
2019-05-01T11:43:12.053Z,38.43
2019-05-01T11:45:40.831Z,36.97
2019-05-01T11:48:09.619Z,37.83
2019-05-01T11:50:38.641Z,39.47
2019-05-01T11:53:07.694Z,36.13
2019-05-01T11:55:37.704Z,35.10
2019-05-01T11:58:06.659Z,37.20
2019-05-01T12:00:37.054Z,37.00
2019-05-01T12:03:09.897Z,35.67
2019-05-01T12:05:39.163Z,35.87
2019-05-01T12:08:12.134Z,38.25
2019-05-01T12:10:40.914Z,36.93
2019-05-01T12:13:10.194Z,36.53
2019-05-01T12:15:39.214Z,36.77
2019-05-01T12:18:11.403Z,36.43
2019-05-01T12:20:41.810Z,36.00
2019-05-01T12:23:10.966Z,35.90
2019-05-01T12:25:43.219Z,38.57
2019-05-01T12:28:12.318Z,38.60
2019-05-01T12:30:41.723Z,37.03
2019-05-01T12:33:11.118Z,36.63
2019-05-01T12:35:40.355Z,39.40
2019-05-01T12:38:09.627Z,38.47
2019-05-01T12:40:38.718Z,38.93
2019-05-01T12:43:07.904Z,40.33
2019-05-01T12:45:36.943Z,38.63
2019-05-01T12:48:07.116Z,35.52
2019-05-01T12:50:47.628Z,38.67
2019-05-01T12:53:21.942Z,36.60
2019-05-01T12:56:15.893Z,39.10
2019-05-01T12:58:45.794Z,40.97
2019-05-01T13:01:15.162Z,37.10
2019-05-01T13:03:44.655Z,38.40
2019-05-01T13:06:14.495Z,36.90
2019-05-01T13:08:43.462Z,40.47
2019-05-01T13:11:12.792Z,38.97
2019-05-01T13:13:45.028Z,37.10
2019-05-01T13:16:16.336Z,35.90
2019-05-01T13:18:45.867Z,37.90
2019-05-01T13:21:15.760Z,36.87
2019-05-01T13:23:47.839Z,36.90
2019-05-01T13:26:37.783Z,37.63
2019-05-01T13:29:25.912Z,36.27
2019-05-01T13:32:14.866Z,35.95
2019-05-01T13:34:44.211Z,37.50
2019-05-01T13:37:13.966Z,36.00
2019-05-01T13:39:43.505Z,35.03
2019-05-01T13:42:13.145Z,39.07
2019-05-01T13:44:42.862Z,35.10
2019-05-01T13:47:11.654Z,36.00
2019-05-01T13:49:40.662Z,38.70
2019-05-01T13:52:09.960Z,35.10
2019-05-01T13:54:47.757Z,36.73
2019-05-01T13:57:16.942Z,33.23
2019-05-01T13:59:46.220Z,35.63
2019-05-01T14:02:15.344Z,34.13
2019-05-01T14:04:44.502Z,33.77
2019-05-01T14:07:16.679Z,36.17
2019-05-01T14:09:44.208Z,35.98
2019-05-01T14:12:13.242Z,36.30
2019-05-01T14:14:42.605Z,34.43
2019-05-01T14:17:11.868Z,37.65
2019-05-01T14:19:43.106Z,36.50
2019-05-01T14:22:34.511Z,34.10
2019-05-01T14:25:04.670Z,34.58
2019-05-01T14:27:33.439Z,33.30
2019-05-01T14:30:02.550Z,36.20
2019-05-01T14:32:31.335Z,34.10
2019-05-01T14:35:00.187Z,36.30
2019-05-01T14:37:29.995Z,33.60
2019-05-01T14:39:59.232Z,31.87
2019-05-01T14:42:28.055Z,30.47
2019-05-01T14:44:57.310Z,31.00
2019-05-01T14:47:26.598Z,32.77
2019-05-01T14:49:55.373Z,31.50
2019-05-01T14:52:24.723Z,30.23
2019-05-01T14:54:53.637Z,32.50
2019-05-01T14:57:22.672Z,32.30
2019-05-01T14:59:51.959Z,33.13
2019-05-01T15:02:20.981Z,33.00
2019-05-01T15:04:49.783Z,31.47
2019-05-01T15:07:18.820Z,30.87
2019-05-01T15:09:47.965Z,30.63
2019-05-01T15:12:17.008Z,31.53
2019-05-01T15:14:56.275Z,31.20
2019-05-01T15:17:39.872Z,31.43
2019-05-01T15:20:08.959Z,31.57
2019-05-01T15:22:38.338Z,29.07
2019-05-01T15:25:07.270Z,30.23
2019-05-01T15:27:36.226Z,29.83
2019-05-01T15:30:06.252Z,29.10
2019-05-01T15:32:35.546Z,30.60
2019-05-01T15:35:04.800Z,30.73
2019-05-01T15:37:35.308Z,28.17
2019-05-01T15:40:15.230Z,29.50
2019-05-01T15:42:58.303Z,28.30
2019-05-01T15:45:27.478Z,27.90
2019-05-01T15:47:56.366Z,28.00
2019-05-01T15:50:25.429Z,27.50
2019-05-01T15:52:54.194Z,28.07
2019-05-01T15:55:23.231Z,29.23
2019-05-01T15:57:52.078Z,28.47
2019-05-01T16:00:21.335Z,28.37
2019-05-01T16:02:51.494Z,26.50
2019-05-01T16:05:21.075Z,26.80
2019-05-01T16:07:50.043Z,26.40
2019-05-01T16:10:23.025Z,26.37
2019-05-01T16:12:59.289Z,26.73
2019-05-01T16:15:30.705Z,28.15
2019-05-01T16:17:59.614Z,26.70
2019-05-01T16:20:28.996Z,25.10
2019-05-01T16:22:58.106Z,24.97
2019-05-01T16:25:26.953Z,25.40
2019-05-01T16:27:56.096Z,25.43
2019-05-01T16:30:26.196Z,24.80
2019-05-01T16:32:55.287Z,26.03
2019-05-01T16:35:24.665Z,25.97
2019-05-01T16:37:54.625Z,25.90
2019-05-01T16:40:34.411Z,28.33
2019-05-01T16:43:03.893Z,24.93
2019-05-01T16:45:33.408Z,27.07
2019-05-01T16:48:02.268Z,25.33
2019-05-01T16:50:31.179Z,26.63
2019-05-01T16:53:00.253Z,26.50
2019-05-01T16:55:29.493Z,27.07
2019-05-01T16:57:58.561Z,26.47
2019-05-01T17:00:59.345Z,28.20
2019-05-01T17:03:47.377Z,29.37
2019-05-01T17:06:24.986Z,28.00
2019-05-01T17:08:57.757Z,28.17
2019-05-01T17:11:28.906Z,27.90
2019-05-01T17:13:58.317Z,27.03
2019-05-01T17:16:27.201Z,27.27
2019-05-01T17:18:56.237Z,29.00
2019-05-01T17:21:25.258Z,27.77
2019-05-01T17:23:55.714Z,27.87
2019-05-01T17:26:24.526Z,29.10
2019-05-01T17:28:54.070Z,27.40
2019-05-01T17:31:26.165Z,27.13
2019-05-01T17:33:56.737Z,28.70
2019-05-01T17:36:25.845Z,28.00
2019-05-01T17:38:55.163Z,27.20
2019-05-01T17:41:27.155Z,28.30
2019-05-01T17:43:56.712Z,29.30
2019-05-01T17:46:25.992Z,28.80
2019-05-01T17:48:55.025Z,27.50
2019-05-01T17:51:24.298Z,28.60
2019-05-01T17:53:53.364Z,28.03
2019-05-01T17:56:27.995Z,29.17
2019-05-01T17:58:55.267Z,29.00
2019-05-01T18:01:43.421Z,29.77
2019-05-01T18:04:27.998Z,29.17
2019-05-01T18:06:59.169Z,30.97
2019-05-01T18:09:28.662Z,28.37
2019-05-01T18:11:57.462Z,29.30
2019-05-01T18:14:26.299Z,30.10
2019-05-01T18:16:55.130Z,30.10
2019-05-01T18:19:24.158Z,28.30
2019-05-01T18:22:05.841Z,29.63
2019-05-01T18:24:53.895Z,27.33
2019-05-01T18:27:42.864Z,28.63
2019-05-01T18:30:15.927Z,30.10
2019-05-01T18:32:46.889Z,30.50
2019-05-01T18:35:16.270Z,30.50
2019-05-01T18:38:16.784Z,30.53
2019-05-01T18:40:48.050Z,35.65
2019-05-01T18:43:17.615Z,35.30
2019-05-01T18:45:55.819Z,31.82
2019-05-01T18:48:28.989Z,32.43
2019-05-01T18:50:58.926Z,31.67
2019-05-01T18:53:28.269Z,30.43
2019-05-01T18:56:05.624Z,29.93
2019-05-01T18:58:32.958Z,29.13
2019-05-01T19:01:04.079Z,30.80
2019-05-01T19:03:37.196Z,30.60
2019-05-01T19:06:04.430Z,30.30
2019-05-01T19:08:33.523Z,32.07
2019-05-01T19:11:12.301Z,30.27
2019-05-01T19:13:34.250Z,29.83
2019-05-01T19:16:07.938Z,30.63
2019-05-01T19:18:34.139Z,28.92
2019-05-01T19:21:03.102Z,28.30
2019-05-01T19:23:33.391Z,30.50
2019-05-01T19:26:06.446Z,31.10
2019-05-01T19:28:33.270Z,31.57
2019-05-01T19:31:02.577Z,30.60
2019-05-01T19:33:31.666Z,31.37
2019-05-01T19:36:02.629Z,31.90
2019-05-01T19:38:34.884Z,30.97
2019-05-01T19:41:03.425Z,32.90
2019-05-01T19:43:35.940Z,33.53
2019-05-01T19:46:03.412Z,31.27
2019-05-01T19:48:32.831Z,32.53
2019-05-01T19:51:01.956Z,35.00
2019-05-01T19:53:31.473Z,32.50
2019-05-01T19:56:00.859Z,34.73
2019-05-01T19:58:29.913Z,33.10
2019-05-01T20:01:04.568Z,35.77
2019-05-01T20:03:36.141Z,34.03
2019-05-01T20:06:06.386Z,31.00
2019-05-01T20:08:35.880Z,31.97
2019-05-01T20:11:04.921Z,32.63
2019-05-01T20:13:34.039Z,29.93
2019-05-01T20:16:03.320Z,31.62
2019-05-01T20:18:33.291Z,29.52
2019-05-01T20:21:02.130Z,30.60
2019-05-01T20:23:33.193Z,30.70
2019-05-01T20:26:02.119Z,31.23
2019-05-01T20:28:31.173Z,31.70
2019-05-01T20:31:00.225Z,32.93
2019-05-01T20:33:33.441Z,31.45
2019-05-01T20:36:00.356Z,31.80
2019-05-01T20:38:31.074Z,32.73
2019-05-01T20:41:00.229Z,31.95
2019-05-01T20:43:29.223Z,31.00
2019-05-01T20:45:58.033Z,32.33
2019-05-01T20:48:27.039Z,33.00
2019-05-01T20:50:55.830Z,31.20
2019-05-01T20:53:25.178Z,30.83
2019-05-01T20:56:06.892Z,29.83
2019-05-01T20:58:37.216Z,32.63
2019-05-01T21:01:06.043Z,31.37
2019-05-01T21:03:36.972Z,32.70
2019-05-01T21:06:15.353Z,32.37
2019-05-01T21:09:08.421Z,30.67
2019-05-01T21:11:42.119Z,30.03
2019-05-01T21:14:19.652Z,30.27
2019-05-01T21:16:44.710Z,30.47
2019-05-01T21:19:14.199Z,30.17
2019-05-01T21:21:43.580Z,30.50
2019-05-01T21:24:30.151Z,29.60
2019-05-01T21:26:59.010Z,30.57
2019-05-01T21:29:28.024Z,30.53
2019-05-01T21:31:56.793Z,30.27
2019-05-01T21:34:26.072Z,31.30
2019-05-01T21:36:55.322Z,31.10
2019-05-01T21:39:26.738Z,31.90
2019-05-01T21:41:55.361Z,33.80
2019-05-01T21:44:24.651Z,32.30
2019-05-01T21:46:53.565Z,32.20
2019-05-01T21:49:22.968Z,34.20
2019-05-01T21:51:52.976Z,33.47
2019-05-01T21:54:22.223Z,35.00
2019-05-01T21:56:51.140Z,33.83
2019-05-01T21:59:20.141Z,34.57
2019-05-01T22:01:49.362Z,35.50
2019-05-01T22:04:18.385Z,36.17
2019-05-01T22:06:51.912Z,34.70
2019-05-01T22:09:22.781Z,34.20
2019-05-01T22:11:51.935Z,33.70
2019-05-01T22:14:43.651Z,33.43
2019-05-01T22:17:33.472Z,34.67
2019-05-01T22:20:02.982Z,32.93
2019-05-01T22:22:43.913Z,36.50
2019-05-01T22:25:17.970Z,34.40
2019-05-01T22:27:51.448Z,31.93
2019-05-01T22:30:36.942Z,31.57
2019-05-01T22:33:06.184Z,32.47
2019-05-01T22:35:38.501Z,32.67
2019-05-01T22:38:08.579Z,32.30
2019-05-01T22:40:49.990Z,34.70
2019-05-01T22:43:19.008Z,34.50
2019-05-01T22:45:48.245Z,33.50
2019-05-01T22:48:17.266Z,32.93
2019-05-01T22:50:47.472Z,37.15
2019-05-01T22:53:16.317Z,37.10
2019-05-01T22:55:45.641Z,36.45
2019-05-01T22:58:14.465Z,36.50
2019-05-01T23:00:47.931Z,38.00
2019-05-01T23:03:40.783Z,38.07
2019-05-01T23:06:07.908Z,39.20
2019-05-01T23:08:37.059Z,37.90
2019-05-01T23:11:18.548Z,37.30
2019-05-01T23:13:37.789Z,40.37
2019-05-01T23:16:07.810Z,39.77
2019-05-01T23:18:36.975Z,41.00
2019-05-01T23:21:09.874Z,40.15
2019-05-01T23:23:37.240Z,39.80
2019-05-01T23:26:06.138Z,39.90
2019-05-01T23:28:39.685Z,39.10
2019-05-01T23:31:05.755Z,38.00
2019-05-01T23:33:34.828Z,39.33
2019-05-01T23:36:03.862Z,37.87
2019-05-01T23:38:32.866Z,38.33
2019-05-01T23:41:02.139Z,39.77
2019-05-01T23:43:30.910Z,39.70
2019-05-01T23:45:59.905Z,36.73
2019-05-01T23:48:28.690Z,38.80
2019-05-01T23:50:57.970Z,39.07
2019-05-01T23:53:26.967Z,35.30
2019-05-01T23:56:00.235Z,37.47
2019-05-01T23:58:26.643Z,36.43
